Time;durP1;ratioP1;P1;durP2;ratioP2;P2;SDS_P1;SDS_P2;PMS_P1;PMS_P2;Temp;Humidity;BMP_temperature;BMP_pressure;BME280_temperature;BME280_humidity;BME280_pressure;Samples;Min_cycle;Max_cycle;Signal;HPM_P1;HPM_P2
2024/03/21 00:01:18;;;;;;;42.90;34.83;;;;;;;10.71;100.00;101820.50;5048558;28;20515;-63
2024/03/21 00:03:44;;;;;;;41.67;33.80;;;;;;;10.79;100.00;101817.13;5029065;28;20084;-65
2024/03/21 00:06:09;;;;;;;42.10;33.70;;;;;;;10.87;100.00;101819.91;5050516;28;20124;-64
2024/03/21 00:08:34;;;;;;;41.70;33.50;;;;;;;10.91;100.00;101828.81;5047727;28;20026;-64
2024/03/21 00:11:00;;;;;;;41.05;33.58;;;;;;;10.90;100.00;101825.25;5049384;28;20049;-64
2024/03/21 00:13:25;;;;;;;41.13;34.15;;;;;;;10.96;100.00;101827.13;5048609;28;20179;-64
2024/03/21 00:15:50;;;;;;;42.83;34.33;;;;;;;10.92;100.00;101834.13;5046647;28;20075;-64
2024/03/21 00:18:16;;;;;;;43.33;33.42;;;;;;;10.90;100.00;101833.19;5049794;28;20040;-65
2024/03/21 00:20:41;;;;;;;41.88;33.28;;;;;;;10.86;100.00;101826.06;5046894;28;20029;-65
2024/03/21 00:23:06;;;;;;;42.95;34.42;;;;;;;10.90;100.00;101829.66;5049932;28;20043;-64
2024/03/21 00:25:32;;;;;;;44.15;34.67;;;;;;;10.87;100.00;101830.50;5047305;28;20049;-65
2024/03/21 00:27:57;;;;;;;43.78;34.80;;;;;;;10.88;100.00;101834.94;5048848;28;20061;-63
2024/03/21 00:30:23;;;;;;;41.67;34.53;;;;;;;10.91;100.00;101842.03;5048960;28;20065;-64
2024/03/21 00:32:48;;;;;;;43.72;34.60;;;;;;;10.86;100.00;101841.06;5047281;28;20021;-63
2024/03/21 00:35:13;;;;;;;43.47;34.88;;;;;;;10.78;100.00;101848.84;5046077;28;20391;-64
2024/03/21 00:37:39;;;;;;;43.28;34.25;;;;;;;10.71;100.00;101842.53;5041966;28;20029;-64
2024/03/21 00:40:05;;;;;;;43.53;33.88;;;;;;;10.64;100.00;101848.56;5046297;28;20464;-63
2024/03/21 00:42:30;;;;;;;42.80;34.42;;;;;;;10.57;100.00;101844.00;5044891;28;20040;-69
2024/03/21 00:44:56;;;;;;;43.92;36.33;;;;;;;10.61;100.00;101851.16;5045062;28;20021;-66
2024/03/21 00:47:21;;;;;;;42.65;34.78;;;;;;;10.59;100.00;101852.88;5046085;28;20041;-66
2024/03/21 00:49:47;;;;;;;44.13;34.95;;;;;;;10.51;100.00;101854.47;5044176;28;20022;-68
2024/03/21 00:52:12;;;;;;;44.05;35.47;;;;;;;10.48;100.00;101850.00;5046725;28;20074;-70
2024/03/21 00:54:38;;;;;;;44.67;36.40;;;;;;;10.48;100.00;101857.06;5043221;28;20083;-69
2024/03/21 00:57:03;;;;;;;43.88;35.35;;;;;;;10.42;100.00;101861.34;5043517;28;20080;-69
2024/03/21 00:59:29;;;;;;;45.05;36.53;;;;;;;10.32;100.00;101859.31;5045527;28;20029;-72
2024/03/21 01:01:54;;;;;;;44.72;36.30;;;;;;;10.26;100.00;101861.84;5045371;28;20029;-69
2024/03/21 01:04:20;;;;;;;42.92;35.17;;;;;;;10.20;100.00;101864.34;5044477;28;20061;-74
2024/03/21 01:06:46;;;;;;;44.53;36.42;;;;;;;10.05;100.00;101855.22;5046709;28;20088;-73
2024/03/21 01:09:19;;;;;;;44.33;35.58;;;;;;;10.04;100.00;101863.13;5042965;28;20483;-65
2024/03/21 01:11:44;;;;;;;44.75;36.20;;;;;;;9.97;100.00;101856.78;5039981;28;20033;-66
2024/03/21 01:14:10;;;;;;;44.42;36.67;;;;;;;9.89;100.00;101866.31;5046270;28;20479;-64
2024/03/21 01:16:35;;;;;;;45.83;37.00;;;;;;;9.82;100.00;101869.66;5046277;28;20373;-64
2024/03/21 01:19:01;;;;;;;46.83;37.80;;;;;;;9.77;100.00;101869.53;5043714;28;20399;-64
2024/03/21 01:21:26;;;;;;;47.20;38.25;;;;;;;9.65;100.00;101870.13;5044277;28;20477;-64
2024/03/21 01:23:53;;;;;;;47.15;37.97;;;;;;;9.63;100.00;101868.31;5044920;28;20040;-65
2024/03/21 01:26:18;;;;;;;48.10;38.17;;;;;;;9.56;100.00;101865.50;5043062;28;20069;-65
2024/03/21 01:28:43;;;;;;;45.17;37.47;;;;;;;9.63;100.00;101876.25;5045887;28;20068;-64
2024/03/21 01:31:16;;;;;;;45.85;37.22;;;;;;;9.72;100.00;101873.81;5042631;28;20036;-64
2024/03/21 01:33:42;;;;;;;44.95;36.13;;;;;;;9.74;100.00;101883.56;5038702;28;20095;-64
2024/03/21 01:36:08;;;;;;;44.47;36.53;;;;;;;9.82;100.00;101886.38;5045544;28;20029;-64
2024/03/21 01:38:34;;;;;;;45.05;36.97;;;;;;;9.86;100.00;101880.31;5043039;28;20030;-64
2024/03/21 01:40:59;;;;;;;45.47;36.22;;;;;;;9.87;100.00;101887.41;5044544;28;20032;-63
2024/03/21 01:43:25;;;;;;;47.22;36.60;;;;;;;10.00;100.00;101887.69;5044130;28;20021;-63
2024/03/21 01:46:17;;;;;;;45.42;37.17;;;;;;;10.05;100.00;101884.28;5043157;28;20042;-63
2024/03/21 01:48:46;;;;;;;45.70;36.65;;;;;;;10.01;100.00;101869.22;5035611;28;20038;-64
2024/03/21 01:51:13;;;;;;;45.38;36.53;;;;;;;10.07;100.00;101882.56;5045630;28;20036;-63
2024/03/21 01:53:41;;;;;;;46.00;36.80;;;;;;;10.02;100.00;101875.38;5041945;28;20028;-63
2024/03/21 01:56:07;;;;;;;46.53;37.47;;;;;;;9.98;100.00;101879.72;5045013;28;20036;-64
2024/03/21 01:58:32;;;;;;;44.97;36.78;;;;;;;9.96;100.00;101881.44;5041728;28;20029;-65
2024/03/21 02:01:16;;;;;;;45.70;37.00;;;;;;;9.90;100.00;101883.91;5043734;28;20035;-64
2024/03/21 02:03:42;;;;;;;46.55;37.63;;;;;;;9.80;100.00;101884.56;5037883;28;20084;-64
2024/03/21 02:06:08;;;;;;;47.05;38.47;;;;;;;9.73;100.00;101873.84;5045289;28;20029;-72
2024/03/21 02:08:33;;;;;;;47.42;37.80;;;;;;;9.72;100.00;101876.47;5042052;28;20104;-77
2024/03/21 02:10:58;;;;;;;44.67;36.75;;;;;;;9.75;100.00;101872.13;5043734;28;20025;-77
2024/03/21 02:13:23;;;;;;;44.50;37.20;;;;;;;9.65;100.00;101867.47;5043899;28;20035;-78
2024/03/21 02:15:49;;;;;;;45.13;37.55;;;;;;;9.58;100.00;101863.81;5044939;28;20088;-76
2024/03/21 02:18:15;;;;;;;45.85;37.10;;;;;;;9.53;100.00;101865.44;5042004;28;20052;-74
2024/03/21 02:20:41;;;;;;;44.75;36.47;;;;;;;9.45;100.00;101871.38;5045076;28;20033;-70
2024/03/21 02:23:06;;;;;;;44.78;36.13;;;;;;;9.39;100.00;101872.09;5042085;28;20087;-75
2024/03/21 02:25:32;;;;;;;46.95;37.47;;;;;;;9.31;100.00;101864.00;5042504;28;20123;-74
2024/03/21 02:27:58;;;;;;;45.42;37.38;;;;;;;9.28;100.00;101868.31;5043226;28;20186;-71
2024/03/21 02:30:23;;;;;;;46.28;38.00;;;;;;;9.33;100.00;101867.56;5042638;28;20091;-70
2024/03/21 02:32:48;;;;;;;44.35;36.58;;;;;;;9.28;100.00;101863.06;5044193;28;20057;-72
2024/03/21 02:35:14;;;;;;;44.67;36.97;;;;;;;9.33;100.00;101882.50;5041646;28;20032;-70
2024/03/21 02:37:39;;;;;;;45.35;36.85;;;;;;;9.25;100.00;101856.81;5044841;28;20029;-70
2024/03/21 02:40:05;;;;;;;48.83;38.13;;;;;;;9.25;100.00;101874.41;5041965;28;20026;-71
2024/03/21 02:42:31;;;;;;;46.80;37.35;;;;;;;9.20;100.00;101871.66;5042462;28;20065;-70
2024/03/21 02:44:56;;;;;;;46.42;38.20;;;;;;;9.22;100.00;101884.88;5043051;28;20052;-75
2024/03/21 02:47:22;;;;;;;46.55;37.03;;;;;;;9.22;100.00;101893.69;5042449;28;20021;-64
2024/03/21 02:49:47;;;;;;;44.58;36.42;;;;;;;9.21;100.00;101894.53;5044322;28;20037;-64
2024/03/21 02:52:13;;;;;;;46.08;37.42;;;;;;;9.18;100.00;101896.22;5041181;28;20037;-63
2024/03/21 02:54:38;;;;;;;44.88;36.75;;;;;;;9.08;100.00;101892.41;5044764;28;20065;-63
2024/03/21 02:57:08;;;;;;;46.53;37.67;;;;;;;8.96;100.00;101887.69;5041231;28;20033;-63
2024/03/21 02:59:34;;;;;;;45.10;37.83;;;;;;;8.88;100.00;101891.84;5042277;28;20384;-64
2024/03/21 03:02:00;;;;;;;44.63;36.33;;;;;;;8.88;100.00;101897.13;5042597;28;20025;-65
2024/03/21 03:04:25;;;;;;;44.33;35.40;;;;;;;8.88;100.00;101907.69;5041055;28;20030;-72
2024/03/21 03:06:51;;;;;;;45.00;36.70;;;;;;;8.80;100.00;101899.56;5043401;28;20025;-68
2024/03/21 03:09:16;;;;;;;42.05;33.50;;;;;;;8.84;100.00;101911.06;5041447;28;20132;-69
2024/03/21 03:11:41;;;;;;;41.88;32.85;;;;;;;8.76;100.00;101907.34;5044325;28;20052;-67
2024/03/21 03:14:07;;;;;;;39.47;30.90;;;;;;;8.70;100.00;101903.66;5041356;28;20025;-74
2024/03/21 03:16:33;;;;;;;40.33;31.67;;;;;;;8.62;100.00;101901.66;5043796;28;20078;-68
2024/03/21 03:19:00;;;;;;;41.50;31.13;;;;;;;8.62;100.00;101917.47;5043057;28;20101;-65
2024/03/21 03:21:25;;;;;;;38.45;29.63;;;;;;;8.59;100.00;101925.28;5042415;28;20104;-69
2024/03/21 03:23:51;;;;;;;38.30;29.27;;;;;;;8.57;100.00;101919.97;5044679;28;20272;-66
2024/03/21 03:26:16;;;;;;;38.58;29.33;;;;;;;8.55;100.00;101916.41;5044361;28;20052;-72
2024/03/21 03:28:41;;;;;;;39.97;29.52;;;;;;;8.51;100.00;101917.16;5042970;28;20041;-72
2024/03/21 03:31:07;;;;;;;39.38;28.90;;;;;;;8.45;100.00;101915.25;5041845;28;20037;-76
2024/03/21 03:36:16;;;;;;;38.10;28.08;;;;;;;8.42;100.00;101932.66;5037718;28;20072;-73
2024/03/21 03:38:41;;;;;;;36.72;27.25;;;;;;;8.41;100.00;101933.53;5044480;28;20029;-71
2024/03/21 03:41:07;;;;;;;36.85;27.40;;;;;;;8.35;100.00;101934.22;5040169;28;20065;-64
2024/03/21 03:43:32;;;;;;;38.13;27.77;;;;;;;8.32;100.00;101932.38;5043000;28;20025;-64
2024/03/21 03:45:57;;;;;;;37.40;27.60;;;;;;;8.26;100.00;101940.09;5042624;28;20029;-63
2024/03/21 03:48:23;;;;;;;38.22;27.58;;;;;;;8.26;100.00;101944.50;5041780;28;20045;-77
2024/03/21 03:50:48;;;;;;;36.50;26.85;;;;;;;8.26;100.00;101950.63;5043793;28;20082;-75
2024/03/21 03:53:13;;;;;;;35.83;26.33;;;;;;;8.30;100.00;101960.44;5041316;28;20034;-75
2024/03/21 03:55:39;;;;;;;37.47;26.90;;;;;;;8.32;100.00;101971.91;5043795;28;20094;-77
2024/03/21 03:58:04;;;;;;;36.67;26.58;;;;;;;8.48;100.00;101968.03;5041323;28;20064;-74
2024/03/21 04:00:29;;;;;;;36.30;26.17;;;;;;;8.63;100.00;101975.50;5042639;28;20064;-73
2024/03/21 04:02:55;;;;;;;37.05;26.33;;;;;;;8.75;100.00;101974.97;5042553;28;20068;-69
2024/03/21 04:05:20;;;;;;;36.65;26.00;;;;;;;8.81;100.00;101983.09;5041057;28;20025;-76
2024/03/21 04:07:45;;;;;;;35.78;26.27;;;;;;;8.88;100.00;101986.78;5043893;28;20495;-73
2024/03/21 04:10:11;;;;;;;35.30;26.30;;;;;;;8.90;100.00;101991.28;5044387;28;20040;-77
2024/03/21 04:12:39;;;;;;;34.35;25.50;;;;;;;8.99;100.00;101998.56;5047731;28;20523;-77
2024/03/21 04:15:05;;;;;;;38.25;27.02;;;;;;;9.00;100.00;101991.53;5045565;28;20032;-75
2024/03/21 04:17:30;;;;;;;36.78;25.80;;;;;;;8.95;100.00;101990.50;5045816;28;20029;-64
2024/03/21 04:19:56;;;;;;;35.92;26.23;;;;;;;8.85;100.00;101984.06;5046017;28;20025;-64
2024/03/21 04:22:21;;;;;;;36.20;26.20;;;;;;;8.81;100.00;101982.19;5044388;28;20029;-64
2024/03/21 04:24:47;;;;;;;37.80;25.92;;;;;;;8.69;100.00;101983.63;5046854;28;20076;-64
2024/03/21 04:27:12;;;;;;;39.15;27.00;;;;;;;8.57;100.00;101988.50;5043935;28;20112;-66
2024/03/21 04:29:38;;;;;;;38.58;27.27;;;;;;;8.53;100.00;101991.91;5046715;28;20436;-66
2024/03/21 04:32:03;;;;;;;38.83;28.05;;;;;;;8.58;100.00;101995.59;5044555;28;20037;-66
2024/03/21 04:34:29;;;;;;;39.10;27.35;;;;;;;8.64;100.00;101994.88;5045828;28;20116;-66
2024/03/21 04:36:54;;;;;;;38.47;27.75;;;;;;;8.64;100.00;101992.25;5045562;28;20033;-67
2024/03/21 04:39:20;;;;;;;36.60;27.20;;;;;;;8.64;100.00;101995.75;5043887;28;20057;-65
2024/03/21 04:41:45;;;;;;;39.22;27.55;;;;;;;8.61;100.00;102011.50;5047045;28;20037;-65
2024/03/21 04:44:10;;;;;;;40.90;28.48;;;;;;;8.63;100.00;102019.44;5043518;28;20029;-65
2024/03/21 04:46:36;;;;;;;38.20;28.05;;;;;;;8.65;100.00;102023.91;5046140;28;20033;-64
2024/03/21 04:49:01;;;;;;;40.17;29.85;;;;;;;8.68;100.00;102023.13;5044740;28;20036;-65
2024/03/21 04:51:26;;;;;;;39.22;29.10;;;;;;;8.74;100.00;102023.31;5044738;28;20436;-65
2024/03/21 04:53:52;;;;;;;41.33;29.92;;;;;;;8.76;100.00;102031.25;5045843;28;20063;-65
2024/03/21 04:56:17;;;;;;;40.83;30.45;;;;;;;8.70;100.00;102032.84;5043309;28;20037;-64
2024/03/21 04:58:42;;;;;;;41.92;30.50;;;;;;;8.70;100.00;102032.84;5045277;28;20033;-64
2024/03/21 05:01:08;;;;;;;43.35;31.67;;;;;;;8.73;100.00;102032.94;5043566;28;20021;-64
2024/03/21 05:03:33;;;;;;;39.85;29.77;;;;;;;8.77;100.00;102041.84;5045302;28;20029;-64
2024/03/21 05:05:59;;;;;;;39.63;30.23;;;;;;;8.81;100.00;102045.47;5044513;28;20021;-64
2024/03/21 05:08:25;;;;;;;38.83;28.88;;;;;;;8.83;100.00;102043.78;5043070;28;20036;-64
2024/03/21 05:10:50;;;;;;;39.80;29.50;;;;;;;8.89;100.00;102055.41;5045551;28;20033;-64
2024/03/21 05:13:16;;;;;;;40.65;29.73;;;;;;;8.90;100.00;102054.56;5042807;28;20052;-64
2024/03/21 05:15:51;;;;;;;41.00;29.42;;;;;;;8.92;100.00;102059.88;5038908;28;20396;-64
2024/03/21 05:18:16;;;;;;;39.03;28.67;;;;;;;8.90;100.00;102067.75;5039477;28;20030;-64
2024/03/21 05:20:42;;;;;;;39.63;29.45;;;;;;;8.95;100.00;102077.53;5045477;28;20028;-64
2024/03/21 05:23:07;;;;;;;40.25;29.70;;;;;;;8.96;100.00;102079.34;5043251;28;20461;-66
2024/03/21 05:25:36;;;;;;;35.67;25.00;;;;;;;8.96;100.00;102084.63;5044706;28;20508;-66
2024/03/21 05:28:02;;;;;;;30.13;19.95;;;;;;;8.97;100.00;102082.03;5043749;28;20035;-65
2024/03/21 05:30:31;;;;;;;28.45;17.65;;;;;;;9.01;100.00;102090.91;5044284;28;20053;-64
2024/03/21 05:32:57;;;;;;;26.70;16.05;;;;;;;8.97;100.00;102089.03;5044480;28;20092;-64
2024/03/21 05:35:23;;;;;;;24.75;14.13;;;;;;;8.98;100.00;102090.81;5043281;28;20133;-64
2024/03/21 05:37:48;;;;;;;24.65;14.75;;;;;;;8.94;100.00;102089.84;5045643;28;20170;-64
2024/03/21 05:40:14;;;;;;;25.42;15.10;;;;;;;8.89;100.00;102096.72;5042492;28;20520;-74
2024/03/21 05:42:39;;;;;;;24.77;14.95;;;;;;;8.86;100.00;102101.91;5045937;28;20099;-73
2024/03/21 05:45:05;;;;;;;25.48;14.40;;;;;;;8.88;100.00;102114.28;5042223;28;20028;-78
2024/03/21 05:47:30;;;;;;;23.80;13.70;;;;;;;8.84;100.00;102109.75;5044252;28;20029;-70
2024/03/21 05:49:56;;;;;;;23.70;13.32;;;;;;;8.78;100.00;102113.94;5044395;28;20049;-70
2024/03/21 05:52:21;;;;;;;24.00;13.60;;;;;;;8.81;100.00;102114.03;5043437;28;20395;-74
2024/03/21 05:54:50;;;;;;;24.65;14.15;;;;;;;8.70;100.00;102126.88;5027768;28;20069;-74
2024/03/21 05:57:16;;;;;;;23.70;13.38;;;;;;;8.75;100.00;102121.75;5041977;28;20495;-76
2024/03/21 05:59:41;;;;;;;24.17;14.15;;;;;;;8.71;100.00;102120.75;5045511;28;20041;-73
2024/03/21 06:02:08;;;;;;;25.20;14.88;;;;;;;8.73;100.00;102125.22;5042949;28;20128;-70
2024/03/21 06:04:33;;;;;;;25.33;14.88;;;;;;;8.71;100.00;102123.41;5043132;28;20033;-73
2024/03/21 06:06:58;;;;;;;24.88;15.38;;;;;;;8.76;100.00;102136.72;5044217;28;20033;-76
2024/03/21 06:09:25;;;;;;;25.90;15.85;;;;;;;8.73;100.00;102134.88;5042909;28;20079;-77
2024/03/21 06:11:50;;;;;;;25.65;16.65;;;;;;;8.76;100.00;102139.38;5043852;28;20075;-78
2024/03/21 06:14:16;;;;;;;26.50;17.38;;;;;;;8.78;100.00;102140.28;5042207;28;20021;-78
2024/03/21 06:16:41;;;;;;;27.50;18.08;;;;;;;8.79;100.00;102142.09;5045265;28;20052;-78
2024/03/21 06:19:07;;;;;;;28.83;19.52;;;;;;;8.83;100.00;102139.59;5043139;28;20121;-78
2024/03/21 06:21:32;;;;;;;27.48;18.13;;;;;;;8.87;100.00;102143.25;5044055;28;20120;-69
2024/03/21 06:23:57;;;;;;;27.70;18.10;;;;;;;8.92;100.00;102151.31;5043775;28;20037;-70
2024/03/21 06:26:23;;;;;;;25.52;16.58;;;;;;;8.90;100.00;102153.88;5042188;28;20059;-64
2024/03/21 06:28:48;;;;;;;25.95;16.70;;;;;;;8.90;100.00;102162.69;5044711;28;20048;-64
2024/03/21 06:31:13;;;;;;;27.08;17.08;;;;;;;8.91;100.00;102163.56;5041142;28;20064;-67
2024/03/21 06:33:38;;;;;;;27.90;17.48;;;;;;;8.92;100.00;102165.38;5043957;28;20033;-64
2024/03/21 06:36:04;;;;;;;28.00;18.02;;;;;;;8.82;100.00;102172.06;5042508;28;20037;-64
2024/03/21 06:38:30;;;;;;;29.75;21.80;;;;;;;8.85;100.00;102179.19;5042985;28;20059;-63
2024/03/21 06:40:55;;;;;;;30.40;20.05;;;;;;;8.89;100.00;102179.34;5043506;28;20388;-65
2024/03/21 06:43:21;;;;;;;31.00;20.30;;;;;;;8.90;100.00;102183.78;5040404;28;20557;-63
2024/03/21 06:45:54;;;;;;;30.80;20.52;;;;;;;8.93;100.00;102182.06;5044883;28;20037;-68
2024/03/21 06:48:19;;;;;;;29.35;19.02;;;;;;;8.98;100.00;102181.38;5037111;28;20061;-77
2024/03/21 06:50:44;;;;;;;30.48;19.77;;;;;;;9.01;100.00;102185.88;5043215;28;20072;-67
2024/03/21 06:53:09;;;;;;;30.65;19.75;;;;;;;9.06;100.00;102179.91;5041344;28;20072;-64
2024/03/21 06:55:35;;;;;;;31.30;20.45;;;;;;;9.11;100.00;102187.06;5043351;28;20048;-66
2024/03/21 06:58:00;;;;;;;30.08;20.42;;;;;;;9.07;100.00;102191.34;5042469;28;20037;-64
2024/03/21 07:00:27;;;;;;;30.65;20.05;;;;;;;9.11;100.00;102197.63;5040778;28;20030;-64
2024/03/21 07:02:54;;;;;;;31.80;21.05;;;;;;;9.12;100.00;102199.41;5043681;28;20029;-68
2024/03/21 07:05:20;;;;;;;31.10;22.08;;;;;;;9.14;100.00;102203.00;5041689;28;20036;-64
2024/03/21 07:07:46;;;;;;;30.42;20.70;;;;;;;9.19;100.00;102211.97;5044469;28;20029;-65
2024/03/21 07:10:11;;;;;;;31.58;22.40;;;;;;;9.19;100.00;102207.56;5044161;28;20033;-63
2024/03/21 07:12:36;;;;;;;30.70;20.83;;;;;;;9.24;100.00;102215.63;5041454;28;20032;-63
2024/03/21 07:15:03;;;;;;;30.30;20.30;;;;;;;9.25;100.00;102217.44;5042998;28;20033;-64
2024/03/21 07:17:28;;;;;;;24.63;14.35;;;;;;;9.26;100.00;102227.09;5041565;28;20025;-64
2024/03/21 07:19:54;;;;;;;22.70;12.32;;;;;;;9.29;100.00;102234.25;5041705;28;20030;-65
2024/03/21 07:22:19;;;;;;;22.33;12.02;;;;;;;9.28;100.00;102235.09;5043985;28;20030;-69
2024/03/21 07:24:45;;;;;;;24.23;14.23;;;;;;;9.27;100.00;102239.47;5039212;28;20058;-66
2024/03/21 07:27:10;;;;;;;25.55;14.95;;;;;;;9.24;100.00;102252.56;5043593;28;20029;-64
2024/03/21 07:29:35;;;;;;;23.02;13.13;;;;;;;9.28;100.00;102259.75;5041674;28;20033;-65
2024/03/21 07:32:05;;;;;;;23.05;13.27;;;;;;;9.25;100.00;102262.28;5041194;28;20368;-65
2024/03/21 07:34:32;;;;;;;22.35;11.15;;;;;;;9.21;100.00;102269.19;5042441;28;20036;-65
2024/03/21 07:36:57;;;;;;;22.40;12.88;;;;;;;9.19;100.00;102265.63;5040588;28;20033;-66
2024/03/21 07:39:23;;;;;;;21.88;10.98;;;;;;;9.20;100.00;102269.16;5041923;28;20033;-66
2024/03/21 07:41:49;;;;;;;22.63;11.25;;;;;;;9.17;100.00;102266.41;5040676;28;20034;-64
2024/03/21 07:44:14;;;;;;;21.48;11.68;;;;;;;9.26;100.00;102274.59;5046779;28;20033;-65
2024/03/21 07:46:40;;;;;;;20.85;9.95;;;;;;;9.32;100.00;102276.56;5044917;28;20040;-65
2024/03/21 07:49:07;;;;;;;21.52;10.32;;;;;;;9.33;100.00;102278.34;5046820;28;20029;-66
2024/03/21 07:51:33;;;;;;;20.67;9.90;;;;;;;9.40;100.00;102280.34;5046281;28;20090;-64
2024/03/21 07:53:58;;;;;;;21.83;10.50;;;;;;;9.45;100.00;102278.75;5045663;28;20029;-65
2024/03/21 07:56:24;;;;;;;21.33;10.48;;;;;;;9.52;100.00;102279.84;5046872;28;20036;-64
2024/03/21 07:58:50;;;;;;;20.55;9.93;;;;;;;9.53;100.00;102290.44;5044549;28;20026;-66
2024/03/21 08:01:15;;;;;;;20.25;9.43;;;;;;;9.52;100.00;102293.03;5046413;28;20087;-65
2024/03/21 08:03:40;;;;;;;21.10;9.80;;;;;;;9.50;100.00;102293.00;5044508;28;20029;-64
2024/03/21 08:06:06;;;;;;;19.88;9.05;;;;;;;9.58;100.00;102290.59;5045484;28;20113;-64
2024/03/21 08:08:31;;;;;;;20.00;8.65;;;;;;;9.66;100.00;102288.19;5044308;28;20040;-64
2024/03/21 08:10:57;;;;;;;20.13;8.98;;;;;;;9.75;100.00;102305.22;5045603;28;20037;-64
2024/03/21 08:13:22;;;;;;;19.83;8.80;;;;;;;9.85;100.00;102305.50;5046864;28;20032;-64
2024/03/21 08:15:48;;;;;;;20.50;8.60;;;;;;;9.97;100.00;102308.50;5043950;28;20041;-64
2024/03/21 08:18:13;;;;;;;20.33;8.52;;;;;;;10.03;100.00;102306.06;5046650;28;20036;-64
2024/03/21 08:20:38;;;;;;;19.92;8.82;;;;;;;10.08;100.00;102301.81;5044576;28;20029;-65
2024/03/21 08:23:04;;;;;;;19.30;8.60;;;;;;;10.17;100.00;102302.94;5044901;28;20068;-78
2024/03/21 08:25:29;;;;;;;20.92;8.98;;;;;;;10.10;100.00;102318.59;5045979;28;20504;-78
2024/03/21 08:27:55;;;;;;;19.98;8.60;;;;;;;10.19;100.00;102309.16;5044687;28;20033;-78
2024/03/21 08:30:20;;;;;;;19.17;8.38;;;;;;;10.27;100.00;102310.28;5046915;28;20025;-77
2024/03/21 08:32:45;;;;;;;20.52;8.68;;;;;;;10.36;100.00;102320.25;5044101;28;20136;-75
2024/03/21 08:35:11;;;;;;;19.58;8.73;;;;;;;10.42;100.00;102318.66;5046706;28;20040;-75
2024/03/21 08:37:36;;;;;;;19.55;8.68;;;;;;;10.46;100.00;102324.94;5044419;28;20083;-71
2024/03/21 08:40:02;;;;;;;21.30;9.20;;;;;;;10.48;100.00;102320.59;5045587;28;20030;-74
2024/03/21 08:42:29;;;;;;;20.58;8.65;;;;;;;10.58;100.00;102317.34;5045479;28;20553;-71
2024/03/21 08:44:55;;;;;;;19.90;8.80;;;;;;;10.61;100.00;102314.78;5044065;28;20152;-75
2024/03/21 08:47:24;;;;;;;20.00;8.80;;;;;;;10.55;100.00;102327.84;5046868;28;20036;-71
2024/03/21 08:49:49;;;;;;;20.13;8.70;;;;;;;10.59;100.00;102320.91;5043304;28;20083;-71
2024/03/21 08:52:14;;;;;;;19.25;8.13;;;;;;;10.56;100.00;102323.47;5046797;28;20080;-78
2024/03/21 08:54:40;;;;;;;19.13;8.32;;;;;;;10.37;100.00;102322.94;5043012;28;20037;-71
2024/03/21 08:57:05;;;;;;;19.95;8.52;;;;;;;10.52;100.00;102329.53;5045269;28;20029;-74
2024/03/21 08:59:31;;;;;;;19.25;8.10;;;;;;;10.30;100.00;102332.41;5045434;28;20041;-75
2024/03/21 09:01:57;;;;;;;18.90;7.72;;;;;;;10.35;100.00;102334.31;5043065;28;20443;-76
2024/03/21 09:04:23;;;;;;;19.63;8.07;;;;;;;10.47;100.00;102345.25;5044949;28;20048;-73
2024/03/21 09:06:48;;;;;;;19.85;8.68;;;;;;;10.68;100.00;102346.72;5043419;28;20130;-74
2024/03/21 09:09:15;;;;;;;20.02;8.55;;;;;;;10.88;100.00;102336.66;5046735;28;20035;-74
2024/03/21 09:11:41;;;;;;;20.40;8.80;;;;;;;10.97;100.00;102336.91;5043399;28;20119;-71
2024/03/21 09:14:06;;;;;;;19.40;8.10;;;;;;;10.99;100.00;102337.84;5045564;28;20053;-71
2024/03/21 09:16:31;;;;;;;20.73;8.75;;;;;;;11.06;100.00;102342.44;5044308;28;20033;-66
2024/03/21 09:18:57;;;;;;;19.00;8.43;;;;;;;11.10;100.00;102344.31;5042592;28;20045;-66
2024/03/21 09:21:22;;;;;;;21.15;9.50;;;;;;;10.93;100.00;102337.69;5045842;28;20025;-66
2024/03/21 09:23:48;;;;;;;21.90;10.07;;;;;;;10.73;100.00;102332.75;5042959;28;20030;-65
2024/03/21 09:26:14;;;;;;;19.98;10.05;;;;;;;10.34;100.00;102343.09;5045839;28;20041;-65
2024/03/21 09:28:39;;;;;;;20.73;10.38;;;;;;;10.21;100.00;102352.41;5043666;28;20384;-66
2024/03/21 09:31:05;;;;;;;20.13;10.30;;;;;;;10.22;100.00;102344.50;5044508;28;20384;-66
2024/03/21 09:33:32;;;;;;;20.58;9.73;;;;;;;10.33;100.00;102342.16;5044593;28;20040;-66
2024/03/21 09:36:06;;;;;;;20.83;10.65;;;;;;;10.48;100.00;102341.75;5042378;28;20033;-67
2024/03/21 09:38:32;;;;;;;20.60;10.73;;;;;;;10.52;100.00;102350.66;5044040;28;20033;-65
2024/03/21 09:40:59;;;;;;;20.13;10.45;;;;;;;10.95;100.00;102343.91;5043777;28;20116;-66
2024/03/21 09:43:25;;;;;;;21.15;10.48;;;;;;;11.43;100.00;102353.97;5043836;28;20021;-65
2024/03/21 09:45:54;;;;;;;21.13;9.80;;;;;;;11.56;100.00;102348.97;5042232;28;20037;-66
2024/03/21 09:48:20;;;;;;;19.42;9.60;;;;;;;11.36;100.00;102359.06;5044478;28;20222;-65
2024/03/21 09:50:47;;;;;;;18.45;7.75;;;;;;;11.15;100.00;102363.88;5041064;28;20159;-65
2024/03/21 09:53:16;;;;;;;19.52;7.80;;;;;;;10.94;100.00;102364.19;5045325;28;20392;-65
2024/03/21 09:55:42;;;;;;;20.20;8.30;;;;;;;11.13;100.00;102368.22;5041314;28;20025;-65
2024/03/21 09:58:12;;;;;;;19.65;8.02;;;;;;;11.26;100.00;102373.84;5044659;28;20108;-65
2024/03/21 10:00:38;;;;;;;19.65;7.90;;;;;;;11.20;100.00;102371.00;5043142;28;20029;-65
2024/03/21 10:03:04;;;;;;;19.23;8.10;;;;;;;11.10;100.00;102378.72;5043702;28;20033;-66
2024/03/21 10:05:30;;;;;;;19.30;7.95;;;;;;;10.99;100.00;102372.22;5044014;28;20040;-65
2024/03/21 10:07:55;;;;;;;18.25;7.35;;;;;;;11.08;100.00;102384.81;5042487;28;20083;-64
2024/03/21 10:10:21;;;;;;;17.60;6.78;;;;;;;11.21;100.00;102389.56;5045117;28;20043;-67
2024/03/21 10:12:49;;;;;;;20.40;7.32;;;;;;;11.44;100.00;102387.53;5024147;28;20029;-72
2024/03/21 10:15:17;;;;;;;19.73;7.75;;;;;;;11.51;100.00;102392.13;5037614;28;20033;-72
2024/03/21 10:17:42;;;;;;;18.90;8.00;;;;;;;11.63;100.00;102395.94;5045160;28;20475;-68
2024/03/21 10:20:11;;;;;;;17.23;6.47;;;;;;;12.07;100.00;102397.88;5042929;28;20052;-76
2024/03/21 10:22:43;;;;;;;19.23;7.95;;;;;;;12.35;100.00;102402.94;5043194;28;20033;-75
2024/03/21 10:25:13;;;;;;;16.08;5.90;;;;;;;12.03;100.00;102411.06;5042324;28;20400;-76
2024/03/21 10:27:41;;;;;;;17.00;5.95;;;;;;;11.74;100.00;102406.81;5044150;28;20026;-68
2024/03/21 10:30:16;;;;;;;17.52;6.38;;;;;;;11.80;100.00;102405.19;5043093;28;20460;-75
2024/03/21 10:32:42;;;;;;;19.70;6.50;;;;;;;11.73;100.00;102411.19;5044395;28;20104;-75
2024/03/21 10:35:11;;;;;;;18.60;6.72;;;;;;;11.39;100.00;102414.72;5042524;28;20029;-77
2024/03/21 10:37:37;;;;;;;19.48;6.78;;;;;;;11.34;100.00;102418.19;5043880;28;20080;-71
2024/03/21 10:40:06;;;;;;;18.27;6.53;;;;;;;11.39;100.00;102426.25;5043124;28;20033;-66
2024/03/21 10:42:32;;;;;;;15.75;5.70;;;;;;;11.49;100.00;102425.63;5043259;28;20034;-65
2024/03/21 10:45:02;;;;;;;18.17;6.30;;;;;;;11.41;100.00;102429.81;5043858;28;20059;-65
2024/03/21 10:47:28;;;;;;;18.60;6.40;;;;;;;11.44;100.00;102435.19;5041077;28;20473;-63
2024/03/21 10:49:54;;;;;;;19.33;7.03;;;;;;;11.21;100.00;102437.22;5044140;28;20040;-63
2024/03/21 10:52:21;;;;;;;17.27;6.70;;;;;;;11.24;100.00;102444.34;5041055;28;20500;-63
2024/03/21 10:54:50;;;;;;;18.25;7.03;;;;;;;11.44;100.00;102444.91;5037320;28;20473;-63
2024/03/21 10:57:24;;;;;;;19.98;7.88;;;;;;;11.85;100.00;102443.31;5044205;28;20357;-63
2024/03/21 10:59:57;;;;;;;19.40;8.15;;;;;;;11.92;100.00;102443.44;5036191;28;20158;-63
2024/03/21 11:02:29;;;;;;;18.60;7.60;;;;;;;11.88;100.00;102453.06;5038108;28;20045;-63
2024/03/21 11:04:55;;;;;;;19.33;8.65;;;;;;;11.84;100.00;102446.81;5043932;28;20032;-63
2024/03/21 11:07:22;;;;;;;19.40;8.10;;;;;;;11.92;100.00;102448.75;5040926;28;20029;-62